Time;durP1;ratioP1;P1;durP2;ratioP2;P2;SDS_P1;SDS_P2;PMS_P1;PMS_P2;Temp;Humidity;BMP_temperature;BMP_pressure;BME280_temperature;BME280_humidity;BME280_pressure;Samples;Min_cycle;Max_cycle;Signal;HPM_P1;HPM_P2
2022/01/25 00:31:15;;;;;;;59.90;3.70;;;4.70;40.90;;;;;;5129473;28;20174;-73
2022/01/25 00:33:43;;;;;;;51.58;2.50;;;;;;;;;;5129074;28;20212;-73
2022/01/25 00:36:13;;;;;;;79.97;4.65;;;4.70;40.40;;;;;;5128556;28;20668;-73
2022/01/25 00:38:39;;;;;;;36.75;2.05;;;;;;;;;;5128226;28;20205;-73
2022/01/25 00:41:05;;;;;;;43.00;3.40;;;;;;;;;;5109795;28;20188;-73
2022/01/25 00:43:31;;;;;;;51.10;2.80;;;;;;;;;;5125315;28;20184;-74
2022/01/25 00:46:01;;;;;;;45.53;2.83;;;4.80;40.30;;;;;;5128060;28;20264;-73
2022/01/25 00:48:41;;;;;;;39.13;2.95;;;;;;;;;;5128018;28;20283;-72
2022/01/25 00:51:24;;;;;;;37.15;2.42;;;;;;;;;;5128119;28;20173;-73
2022/01/25 00:53:57;;;;;;;47.97;2.47;;;;;;;;;;5128229;28;20683;-73
2022/01/25 00:56:31;;;;;;;31.77;2.40;;;4.60;40.80;;;;;;5125899;28;20189;-73
2022/01/25 00:58:57;;;;;;;55.10;3.17;;;4.80;39.90;;;;;;5127976;28;20234;-74
2022/01/25 01:01:23;;;;;;;45.40;2.72;;;;;;;;;;5128128;28;20177;-73
2022/01/25 01:03:50;;;;;;;39.28;2.25;;;;;;;;;;5128047;28;20899;-73
2022/01/25 01:06:16;;;;;;;56.45;2.85;;;;;;;;;;5127563;28;20667;-72
2022/01/25 01:08:42;;;;;;;41.45;2.38;;;4.50;40.30;;;;;;5122201;28;20572;-73
2022/01/25 01:11:15;;;;;;;42.80;2.60;;;4.60;40.50;;;;;;5114212;28;20181;-73
2022/01/25 01:14:01;;;;;;;45.95;2.92;;;4.90;39.80;;;;;;5114294;28;20488;-73
2022/01/25 01:31:05;;;;;;;55.03;2.97;;;;;;;;;;5113736;28;20558;-73
2022/01/25 01:48:29;;;;;;;60.78;3.10;;;;;;;;;;5113391;28;20170;-73
2022/01/25 01:50:58;;;;;;;65.30;3.88;;;;;;;;;;5107733;28;20174;-73
2022/01/25 01:53:24;;;;;;;57.55;3.28;;;;;;;;;;5111858;28;20705;-73
2022/01/25 01:55:50;;;;;;;40.10;2.63;;;;;;;;;;5113417;28;20189;-73
2022/01/25 01:58:16;;;;;;;55.45;3.60;;;;;;;;;;5094549;28;20202;-73
2022/01/25 02:00:43;;;;;;;54.92;3.38;;;;;;;;;;5112897;28;20178;-73
2022/01/25 02:03:09;;;;;;;25.17;2.53;;;;;;;;;;5113545;28;20206;-73
2022/01/25 02:05:35;;;;;;;48.47;2.53;;;4.20;41.10;;;;;;5112666;28;20204;-72
2022/01/25 02:08:02;;;;;;;33.42;2.13;;;;;;;;;;5113045;28;20277;-72
2022/01/25 02:10:28;;;;;;;63.97;3.33;;;4.20;41.00;;;;;;5112591;28;20185;-73
2022/01/25 02:12:54;;;;;;;24.65;3.47;;;4.20;40.80;;;;;;5113311;28;20234;-73
2022/01/25 02:15:21;;;;;;;68.97;4.23;;;4.20;40.70;;;;;;5112828;28;20170;-73
2022/01/25 02:23:22;;;;;;;56.05;3.65;;;4.10;40.70;;;;;;5110271;28;20196;-73
2022/01/25 02:25:53;;;;;;;45.47;2.42;;;4.00;41.30;;;;;;5111967;28;20191;-73
2022/01/25 02:28:19;;;;;;;60.08;3.25;;;4.20;41.10;;;;;;5112343;28;20216;-73
2022/01/25 02:30:45;;;;;;;49.25;2.78;;;4.20;41.20;;;;;;5112887;28;20265;-73
2022/01/25 02:33:11;;;;;;;20.27;2.85;;;;;;;;;;5092504;28;20190;-73
2022/01/25 02:35:37;;;;;;;40.22;3.30;;;4.20;41.00;;;;;;5111163;28;20559;-73
2022/01/25 02:38:03;;;;;;;21.77;1.77;;;4.00;41.80;;;;;;5112243;28;20688;-73
2022/01/25 02:40:29;;;;;;;73.32;3.45;;;;;;;;;;5112410;28;20216;-73
2022/01/25 02:42:56;;;;;;;40.40;4.10;;;;;;;;;;5112471;28;20223;-73
2022/01/25 02:45:24;;;;;;;57.20;2.53;;;;;;;;;;5111971;28;20195;-73
2022/01/25 02:50:34;;;;;;;63.33;3.33;;;;;;;;;;5112333;28;20298;-74
2022/01/25 02:53:00;;;;;;;43.58;2.17;;;;;;;;;;5112499;28;20194;-73
2022/01/25 02:55:26;;;;;;;58.40;5.27;;;4.10;40.80;;;;;;5111926;28;20605;-74
2022/01/25 02:57:52;;;;;;;39.63;2.13;;;4.20;40.40;;;;;;5111472;28;20550;-73
2022/01/25 03:00:18;;;;;;;68.73;3.20;;;;;;;;;;5112152;28;20567;-74
2022/01/25 03:02:44;;;;;;;73.30;3.05;;;3.90;41.30;;;;;;5112394;28;20177;-74
2022/01/25 03:05:09;;;;;;;58.10;2.57;;;3.80;41.50;;;;;;5112640;28;20178;-73
2022/01/25 03:07:38;;;;;;;54.27;3.07;;;3.80;42.00;;;;;;5111296;28;20715;-73
2022/01/25 03:10:05;;;;;;;36.65;2.42;;;;;;;;;;5112144;28;20209;-73
2022/01/25 03:12:41;;;;;;;54.75;2.58;;;;;;;;;;5111514;28;20182;-73
2022/01/25 03:17:57;;;;;;;49.95;2.78;;;3.70;41.20;;;;;;5111260;28;20209;-73
2022/01/25 03:23:20;;;;;;;32.95;2.05;;;3.70;41.60;;;;;;5032149;28;20181;-74
2022/01/25 03:25:50;;;;;;;61.97;4.15;;;;;;;;;;5030945;28;20271;-73
2022/01/25 03:28:17;;;;;;;53.05;3.05;;;3.80;40.80;;;;;;5030353;28;20267;-72
2022/01/25 03:30:43;;;;;;;67.13;3.00;;;3.70;40.70;;;;;;5030151;28;20222;-73
2022/01/25 03:33:08;;;;;;;64.23;3.03;;;3.70;41.40;;;;;;5038441;28;20188;-73
2022/01/25 03:35:34;;;;;;;37.97;2.23;;;;;;;;;;5047966;28;20441;-72
2022/01/25 03:38:00;;;;;;;36.25;2.22;;;3.70;40.80;;;;;;5038266;28;20723;-73
2022/01/25 03:40:26;;;;;;;75.03;4.03;;;;;;;;;;5037996;28;20184;-70
2022/01/25 03:42:54;;;;;;;52.85;2.70;;;;;;;;;;5046043;28;20187;-71
2022/01/25 03:45:22;;;;;;;25.50;3.85;;;;;;;;;;5029205;28;20234;-70
2022/01/25 03:49:49;;;;;;;71.88;3.88;;;;;;;;;;5036829;28;20209;-70
2022/01/25 03:50:46;;;;;;;34.47;2.47;;;3.80;40.50;;;;;;5028298;28;20197;-71
2022/01/25 03:53:13;;;;;;;53.00;3.00;;;3.60;40.50;;;;;;5032881;28;20192;-71
2022/01/25 03:55:39;;;;;;;56.88;4.05;;;;;;;;;;5043897;28;20679;-71
2022/01/25 03:58:05;;;;;;;53.97;4.10;;;3.80;40.60;;;;;;5037072;28;20687;-71
2022/01/25 04:00:32;;;;;;;66.23;2.87;;;3.60;40.30;;;;;;5096932;28;20186;-71
2022/01/25 04:03:14;;;;;;;65.90;3.60;;;;;;;;;;5111301;28;21115;-72
2022/01/25 04:08:06;;;;;;;37.60;2.70;;;;;;;;;;5110903;28;20288;-71
2022/01/25 04:10:32;;;;;;;83.45;3.55;;;;;;;;;;5110632;28;20565;-71
2022/01/25 04:12:58;;;;;;;44.13;2.45;;;;;;;;;;5111034;28;20185;-71
2022/01/25 04:15:25;;;;;;;62.63;3.20;;;;;;;;;;5111127;28;20174;-72
2022/01/25 04:18:00;;;;;;;45.05;4.47;;;;;;;;;;5110445;28;20725;-73
2022/01/25 04:20:31;;;;;;;74.45;4.40;;;;;;;;;;5110959;28;20708;-72
2022/01/25 04:25:42;;;;;;;88.00;4.25;;;;;;;;;;5111287;28;20188;-73
2022/01/25 04:28:08;;;;;;;57.05;3.42;;;3.30;40.80;;;;;;5110781;28;20209;-73
2022/01/25 04:30:34;;;;;;;61.57;3.43;;;3.30;41.10;;;;;;5110603;28;20956;-73
2022/01/25 04:33:06;;;;;;;56.67;3.33;;;3.30;40.90;;;;;;5110818;28;20174;-72
2022/01/25 04:49:21;;;;;;;47.70;2.70;;;3.10;41.00;;;;;;5114928;28;20188;-73
2022/01/25 05:02:09;;;;;;;45.75;2.70;;;3.10;41.20;;;;;;5114908;28;20247;-72
2022/01/25 05:04:41;;;;;;;55.33;3.15;;;;;;;;;;5095820;28;20208;-73
2022/01/25 05:07:19;;;;;;;43.47;3.05;;;3.10;41.10;;;;;;5114025;28;20587;-73
2022/01/25 05:09:47;;;;;;;45.03;2.30;;;3.30;40.80;;;;;;5114469;28;20679;-73
2022/01/25 05:12:13;;;;;;;53.05;2.53;;;;;;;;;;5114011;28;20177;-73
2022/01/25 05:14:56;;;;;;;44.45;3.35;;;3.20;40.60;;;;;;5114089;28;20206;-73
2022/01/25 05:17:32;;;;;;;52.88;2.70;;;;;;;;;;5114291;28;20217;-73
2022/01/25 05:22:43;;;;;;;31.25;2.60;;;;;;;;;;5107981;28;20274;-74
2022/01/25 05:25:09;;;;;;;45.97;2.40;;;;;;;;;;5114114;28;20193;-73
2022/01/25 05:27:35;;;;;;;62.40;3.25;;;;;;;;;;5113540;28;20255;-72
2022/01/25 05:30:01;;;;;;;49.67;2.80;;;;;;;;;;5114034;28;20245;-74
2022/01/25 05:32:27;;;;;;;71.47;5.45;;;;;;;;;;5113775;28;20231;-74
2022/01/25 05:34:53;;;;;;;54.00;2.55;;;;;;;;;;5114244;28;20519;-73
2022/01/25 05:37:20;;;;;;;74.72;3.50;;;;;;;;;;5113031;28;20201;-72
2022/01/25 05:39:47;;;;;;;43.03;2.30;;;3.20;40.60;;;;;;5113777;28;20182;-73
2022/01/25 05:42:26;;;;;;;52.72;3.15;;;;;;;;;;5095017;28;20261;-72
2022/01/25 05:47:52;;;;;;;47.08;2.92;;;3.30;40.40;;;;;;5030157;28;20208;-73
2022/01/25 05:50:18;;;;;;;70.10;3.07;;;;;;;;;;5029984;28;20266;-72
2022/01/25 05:52:44;;;;;;;55.45;3.50;;;3.10;40.40;;;;;;5030536;28;20323;-72
2022/01/25 05:55:10;;;;;;;59.70;3.50;;;2.90;41.20;;;;;;5030631;28;20257;-72
2022/01/25 05:57:36;;;;;;;54.63;2.50;;;3.00;41.40;;;;;;5030036;28;20219;-74
2022/01/25 06:00:05;;;;;;;39.92;2.20;;;;;;;;;;5031444;28;20181;-74
2022/01/25 06:02:33;;;;;;;74.15;3.40;;;;;;;;;;5030336;28;20227;-74
2022/01/25 06:04:59;;;;;;;23.23;2.00;;;;;;;;;;5030184;28;20176;-72
2022/01/25 06:07:26;;;;;;;59.67;3.17;;;;;;;;;;5029668;28;20366;-73
2022/01/25 06:09:53;;;;;;;35.92;1.95;;;;;;;;;;5030160;28;20181;-73
2022/01/25 06:12:19;;;;;;;51.75;2.40;;;;;;;;;;5029923;28;20718;-72
2022/01/25 06:14:44;;;;;;;82.35;4.43;;;3.20;40.40;;;;;;5038791;28;20316;-73
2022/01/25 06:17:10;;;;;;;106.60;4.17;;;;;;;;;;5029744;28;20208;-72
2022/01/25 06:19:36;;;;;;;93.55;3.88;;;;;;;;;;5029379;28;20181;-71
2022/01/25 06:22:02;;;;;;;58.40;2.70;;;;;;;;;;5090042;27;20193;-72
2022/01/25 06:24:28;;;;;;;88.25;3.95;;;;;;;;;;5112613;28;20203;-72
2022/01/25 06:26:55;;;;;;;84.10;3.15;;;;;;;;;;5094585;28;20604;-73
2022/01/25 06:29:21;;;;;;;93.05;3.72;;;;;;;;;;5112488;28;20173;-72
2022/01/25 06:31:47;;;;;;;56.60;3.05;;;;;;;;;;5112532;28;20193;-73
2022/01/25 06:34:14;;;;;;;66.68;3.55;;;3.30;40.30;;;;;;5112227;28;20264;-72
2022/01/25 06:36:40;;;;;;;72.43;3.35;;;;;;;;;;5112094;28;20202;-73
2022/01/25 06:39:06;;;;;;;56.03;2.97;;;3.20;40.30;;;;;;5112828;28;20686;-73
2022/01/25 06:41:34;;;;;;;78.63;3.97;;;3.20;40.50;;;;;;5111998;28;20214;-73
2022/01/25 06:44:00;;;;;;;40.20;2.10;;;;;;;;;;5112903;28;20411;-72
2022/01/25 06:46:25;;;;;;;88.90;3.55;;;3.10;40.70;;;;;;5111720;28;20196;-72
2022/01/25 06:48:51;;;;;;;56.63;3.10;;;;;;;;;;5112507;28;20662;-72
2022/01/25 06:51:17;;;;;;;41.00;3.03;;;;;;;;;;5112824;28;20173;-71
2022/01/25 06:53:43;;;;;;;81.90;3.33;;;;;;;;;;5111971;28;20251;-72
2022/01/25 06:56:09;;;;;;;286.88;8.25;;;;;;;;;;5087213;28;20677;-71
2022/01/25 06:58:35;;;;;;;52.40;2.55;;;;;;;;;;5112065;28;20210;-72
2022/01/25 07:01:01;;;;;;;51.85;2.65;;;;;;;;;;5112614;28;20231;-73
2022/01/25 07:03:27;;;;;;;86.15;3.17;;;;;;;;;;5112004;28;20660;-73
2022/01/25 07:05:53;;;;;;;108.22;4.75;;;;;;;;;;5111627;28;20184;-73
2022/01/25 07:08:19;;;;;;;54.67;3.10;;;;;;;;;;5111081;28;20610;-73
2022/01/25 07:10:45;;;;;;;85.43;3.10;;;;;;;;;;5112602;28;20299;-74
2022/01/25 07:13:11;;;;;;;38.22;2.50;;;3.00;40.20;;;;;;5115054;28;20207;-74
2022/01/25 07:15:36;;;;;;;51.30;2.70;;;2.90;40.90;;;;;;5111501;28;20256;-73
2022/01/25 07:18:03;;;;;;;57.73;3.77;;;;;;;;;;5111324;28;20216;-73
2022/01/25 07:20:28;;;;;;;60.13;3.17;;;3.10;40.40;;;;;;5111759;28;20174;-73
2022/01/25 07:22:54;;;;;;;62.73;3.57;;;;;;;;;;5111869;28;20189;-74
2022/01/25 07:25:21;;;;;;;76.10;2.90;;;3.20;40.00;;;;;;5111963;28;20306;-72
2022/01/25 07:27:48;;;;;;;65.03;4.45;;;3.30;39.40;;;;;;5111105;28;20197;-73
2022/01/25 07:30:14;;;;;;;43.50;3.08;;;;;;;;;;5111991;28;20197;-73
2022/01/25 07:32:40;;;;;;;62.38;3.05;;;;;;;;;;5111358;28;20261;-73
2022/01/25 07:35:06;;;;;;;52.60;3.08;;;;;;;;;;5111615;28;20653;-73
2022/01/25 07:37:32;;;;;;;77.07;3.72;;;;;;;;;;5092844;28;20278;-74
2022/01/25 07:39:58;;;;;;;60.60;3.22;;;;;;;;;;5093251;28;20254;-74
2022/01/25 07:42:26;;;;;;;74.63;3.88;;;;;;;;;;5111349;28;20174;-74
2022/01/25 07:44:52;;;;;;;48.92;3.47;;;;;;;;;;5111128;28;20640;-73
2022/01/25 07:47:18;;;;;;;66.25;3.08;;;;;;;;;;5110633;28;20213;-74
2022/01/25 07:49:44;;;;;;;62.92;2.75;;;;;;;;;;5111582;28;20208;-74
2022/01/25 07:52:10;;;;;;;41.03;2.15;;;;;;;;;;5111881;28;20182;-73
2022/01/25 07:54:36;;;;;;;48.97;2.88;;;;;;;;;;5111555;28;20193;-74
2022/01/25 07:57:03;;;;;;;65.13;3.05;;;;;;;;;;5110592;28;20209;-72
2022/01/25 07:59:29;;;;;;;69.20;2.72;;;;;;;;;;5111150;28;20178;-73
2022/01/25 08:01:55;;;;;;;100.43;4.07;;;;;;;;;;5110489;28;20271;-71
2022/01/25 08:04:21;;;;;;;72.97;3.05;;;;;;;;;;5110678;28;20605;-72
2022/01/25 08:06:47;;;;;;;66.30;3.50;;;;;;;;;;5110358;28;20265;-72
2022/01/25 08:09:14;;;;;;;68.15;2.80;;;;;;;;;;5107432;28;20170;-71
2022/01/25 08:11:39;;;;;;;54.10;2.67;;;3.50;38.30;;;;;;5105897;28;20213;-73
2022/01/25 08:14:13;;;;;;;80.87;2.90;;;3.60;38.00;;;;;;5110464;28;20205;-72
2022/01/25 08:16:40;;;;;;;75.65;2.92;;;3.70;37.30;;;;;;5110837;28;20194;-72
2022/01/25 08:19:06;;;;;;;50.38;3.38;;;3.60;36.90;;;;;;5112617;28;20170;-72
2022/01/25 08:21:32;;;;;;;31.70;2.80;;;3.90;35.90;;;;;;5096816;28;20201;-73
2022/01/25 08:23:58;;;;;;;55.40;3.30;;;;;;;;;;5115024;28;20472;-73
2022/01/25 08:26:24;;;;;;;50.83;2.63;;;4.50;33.90;;;;;;5115772;28;20225;-72
2022/01/25 08:28:50;;;;;;;60.87;3.57;;;;;;;;;;5115063;28;20731;-73
2022/01/25 08:31:16;;;;;;;46.53;2.55;;;;;;;;;;5114670;28;20835;-72
2022/01/25 08:33:42;;;;;;;46.70;3.05;;;;;;;;;;5115179;28;20231;-72
2022/01/25 08:36:08;;;;;;;186.95;5.63;;;;;;;;;;5114543;28;20190;-76
2022/01/25 08:38:34;;;;;;;56.15;2.90;;;;;;;;;;5115241;28;20177;-75
2022/01/25 08:41:00;;;;;;;64.40;2.87;;;;;;;;;;5116716;28;20176;-76
2022/01/25 08:43:26;;;;;;;79.60;3.75;;;;;;;;;;5109116;28;20432;-78
2022/01/25 08:45:52;;;;;;;51.20;2.90;;;;;;;;;;5124723;28;20675;-76
2022/01/25 08:48:18;;;;;;;137.65;5.05;;;;;;;;;;5120473;28;20653;-77
2022/01/25 08:50:44;;;;;;;66.75;3.20;;;;;;;;;;5111598;27;20252;-76
2022/01/25 08:53:11;;;;;;;38.25;3.00;;;5.00;33.70;;;;;;5121171;27;20173;-76
2022/01/25 08:55:37;;;;;;;126.55;5.80;;;;;;;;;;5114370;27;20219;-74
2022/01/25 08:58:04;;;;;;;75.30;3.65;;;5.10;34.60;;;;;;5118461;27;20209;-75
2022/01/25 09:00:30;;;;;;;69.30;3.45;;;;;;;;;;5117555;27;20265;-76
2022/01/25 09:02:56;;;;;;;43.58;2.40;;;;;;;;;;5118991;27;20169;-76
2022/01/25 09:05:22;;;;;;;66.95;3.00;;;;;;;;;;5114402;28;20173;-76
2022/01/25 09:07:49;;;;;;;47.88;2.60;;;;;;;;;;5114202;28;20216;-76
2022/01/25 09:10:15;;;;;;;54.05;2.85;;;;;;;;;;5115290;28;20178;-73
2022/01/25 09:12:41;;;;;;;62.38;3.13;;;;;;;;;;5114266;28;20177;-73
2022/01/25 09:15:07;;;;;;;75.65;3.10;;;;;;;;;;5088480;22;20752;-79
2022/01/25 09:17:33;;;;;;;63.88;2.85;;;;;;;;;;5041570;28;20219;-78
2022/01/25 09:20:01;;;;;;;43.83;2.63;;;;;;;;;;5043294;28;20207;-79
2022/01/25 09:22:27;;;;;;;98.07;3.80;;;;;;;;;;5041607;28;20172;-78
2022/01/25 09:24:53;;;;;;;56.25;3.08;;;3.20;45.60;;;;;;5050021;28;20203;-78
2022/01/25 09:27:18;;;;;;;87.40;3.00;;;3.50;43.60;;;;;;5045493;28;20741;-78
2022/01/25 09:29:44;;;;;;;52.67;2.43;;;3.40;43.80;;;;;;5051994;28;20263;-79
2022/01/25 09:32:10;;;;;;;46.87;3.27;;;;;;;;;;5050836;28;20693;-80
2022/01/25 09:34:36;;;;;;;94.38;3.13;;;;;;;;;;5040767;28;20355;-82
2022/01/25 09:37:02;;;;;;;86.22;3.17;;;;;;;;;;5045981;28;20243;-81
2022/01/25 09:39:28;;;;;;;78.30;3.00;;;;;;;;;;5048661;28;20184;-79
2022/01/25 09:41:55;;;;;;;59.15;2.58;;;3.70;45.30;;;;;;5049183;28;20188;-79
2022/01/25 09:44:21;;;;;;;115.10;3.85;;;3.30;45.00;;;;;;5047038;28;20211;-78
2022/01/25 09:46:46;;;;;;;73.63;3.50;;;4.00;43.20;;;;;;5046520;28;20202;-78
2022/01/25 09:49:12;;;;;;;109.60;3.33;;;;;;;;;;5054596;28;20655;-77
2022/01/25 09:51:44;;;;;;;77.00;2.90;;;;;;;;;;5048378;28;20671;-79
2022/01/25 09:54:10;;;;;;;167.35;5.13;;;;;;;;;;5044703;28;20196;-79
2022/01/25 09:56:35;;;;;;;129.03;4.23;;;3.90;45.00;;;;;;5046338;28;20267;-79
2022/01/25 09:59:01;;;;;;;52.50;2.43;;;3.80;44.70;;;;;;5043340;28;20921;-79
2022/01/25 10:01:31;;;;;;;114.40;3.87;;;;;;;;;;5039636;28;20650;-80
2022/01/25 10:03:58;;;;;;;88.60;3.35;;;4.20;44.00;;;;;;5051961;28;20705;-80
2022/01/25 10:06:30;;;;;;;106.70;3.65;;;;;;;;;;5046843;28;20200;-80
2022/01/25 10:08:56;;;;;;;67.35;4.90;;;;;;;;;;5054201;28;20195;-80
2022/01/25 10:11:23;;;;;;;61.47;2.63;;;4.50;43.30;;;;;;5047187;28;20249;-81
2022/01/25 10:13:54;;;;;;;54.28;2.88;;;4.70;42.70;;;;;;5045577;28;20450;-80
2022/01/25 10:16:22;;;;;;;60.20;3.78;;;;;;;;;;5048751;28;20172;-80
2022/01/25 10:18:59;;;;;;;60.15;2.58;;;4.40;42.80;;;;;;5045224;28;20258;-79
2022/01/25 10:21:27;;;;;;;74.95;2.92;;;;;;;;;;5047532;28;20195;-80
2022/01/25 10:24:06;;;;;;;61.35;3.00;;;4.50;42.80;;;;;;5046665;28;20212;-79
2022/01/25 10:26:36;;;;;;;127.00;3.78;;;4.60;41.80;;;;;;5050084;28;20270;-79
2022/01/25 10:29:04;;;;;;;52.88;3.00;;;;;;;;;;5041085;28;20287;-79
2022/01/25 10:31:38;;;;;;;44.63;3.05;;;4.20;42.70;;;;;;5047371;28;20668;-80
2022/01/25 10:34:05;;;;;;;73.25;3.15;;;;;;;;;;5040496;28;20200;-81
2022/01/25 10:36:31;;;;;;;75.93;4.00;;;;;;;;;;5048116;28;20175;-81
2022/01/25 10:38:58;;;;;;;51.97;2.90;;;;;;;;;;5049783;28;20587;-79
2022/01/25 10:41:26;;;;;;;75.45;3.10;;;4.80;41.10;;;;;;5047530;28;20180;-80
2022/01/25 10:43:54;;;;;;;55.35;2.95;;;5.00;40.60;;;;;;5052967;28;20219;-80
2022/01/25 10:46:28;;;;;;;112.82;3.45;;;5.50;39.10;;;;;;5048211;28;20176;-80
2022/01/25 10:48:56;;;;;;;67.20;2.70;;;;;;;;;;5048708;28;20713;-81
2022/01/25 10:51:30;;;;;;;85.45;4.28;;;6.20;37.10;;;;;;5039855;28;20203;-81
2022/01/25 10:54:07;;;;;;;69.80;3.45;;;5.80;38.30;;;;;;5049825;28;20209;-81
2022/01/25 10:56:39;;;;;;;52.33;2.80;;;;;;;;;;5045288;28;20229;-80
2022/01/25 10:59:06;;;;;;;52.10;2.88;;;;;;;;;;5036636;28;20184;-80
2022/01/25 11:01:37;;;;;;;81.13;3.42;;;8.00;33.30;;;;;;5043391;28;20191;-80
2022/01/25 11:04:11;;;;;;;62.17;4.05;;;8.80;31.20;;;;;;5044308;28;20283;-80
2022/01/25 11:06:37;;;;;;;55.78;3.05;;;9.20;30.00;;;;;;5042844;28;20181;-80
2022/01/25 11:09:05;;;;;;;62.53;3.55;;;;;;;;;;5044119;28;20231;-80
2022/01/25 11:11:34;;;;;;;61.15;3.45;;;;;;;;;;5046989;28;20207;-80
2022/01/25 11:14:50;;;;;;;60.45;3.00;;;;;;;;;;5036413;28;20201;-79
2022/01/25 11:16:48;;;;;;;65.07;4.38;;;8.30;31.30;;;;;;5046968;28;20205;-80
2022/01/25 11:19:14;;;;;;;29.75;2.65;;;;;;;;;;5035193;28;20221;-79
2022/01/25 11:21:42;;;;;;;51.78;2.90;;;7.80;32.20;;;;;;5054106;28;20222;-79
2022/01/25 11:24:09;;;;;;;65.38;3.38;;;7.40;33.80;;;;;;5034381;28;20204;-80
2022/01/25 11:26:35;;;;;;;61.25;4.28;;;;;;;;;;5041394;28;20245;-80
2022/01/25 11:29:02;;;;;;;80.78;3.47;;;;;;;;;;5040238;28;20279;-79
2022/01/25 11:31:28;;;;;;;73.85;4.10;;;7.50;33.60;;;;;;5039996;28;20219;-80
2022/01/25 11:33:55;;;;;;;48.25;3.30;;;7.50;33.50;;;;;;5038998;28;20204;-79
2022/01/25 11:36:22;;;;;;;105.97;4.57;;;8.00;32.20;;;;;;5040374;28;20186;-79
2022/01/25 11:38:49;;;;;;;66.25;4.03;;;;;;;;;;5038025;28;20213;-79
2022/01/25 11:41:18;;;;;;;57.40;4.07;;;9.40;29.80;;;;;;5042765;28;20226;-79
2022/01/25 11:44:05;;;;;;;68.50;4.60;;;10.70;27.90;;;;;;5038473;28;20577;-80
2022/01/25 11:46:30;;;;;;;87.23;6.10;;;12.00;25.30;;;;;;5050109;28;20179;-80
2022/01/25 11:49:00;;;;;;;51.90;4.20;;;;;;;;;;5046013;28;20449;-81
2022/01/25 11:51:26;;;;;;;93.67;4.80;;;;;;;;;;5040636;28;20426;-80
2022/01/25 11:53:52;;;;;;;29.83;2.90;;;;;;;;;;5041638;28;20492;-80
2022/01/25 11:56:18;;;;;;;94.13;4.83;;;;;;;;;;5055944;28;20426;-80
2022/01/25 11:58:53;;;;;;;73.83;4.10;;;;;;;;;;5039783;28;20469;-80
2022/01/25 12:01:20;;;;;;;138.63;6.60;;;;;;;;;;5047192;28;20428;-80
2022/01/25 12:04:07;;;;;;;167.90;6.90;;;14.40;21.70;;;;;;5045422;28;20452;-81
2022/01/25 12:06:39;;;;;;;62.37;4.70;;;15.20;20.70;;;;;;5053584;28;20419;-81
2022/01/25 12:11:39;;;;;;;56.80;4.43;;;;;;;;;;5044652;28;20936;-80
2022/01/25 12:14:18;;;;;;;60.10;4.00;;;12.80;23.90;;;;;;5041650;28;20933;-80
2022/01/25 12:16:48;;;;;;;105.97;5.03;;;;;;;;;;5043346;28;20782;-81
2022/01/25 12:19:19;;;;;;;53.57;5.33;;;;;;;;;;5042425;28;20428;-78
2022/01/25 12:21:46;;;;;;;104.07;4.80;;;;;;;;;;5035862;28;20678;-80
2022/01/25 12:24:15;;;;;;;85.57;4.37;;;;;;;;;;5047031;28;20442;-80
2022/01/25 12:27:17;;;;;;;64.63;4.23;;;12.00;24.90;;;;;;5047368;28;20424;-81
2022/01/25 12:29:47;;;;;;;80.80;4.40;;;;;;;;;;5047767;28;20849;-78
2022/01/25 12:32:15;;;;;;;150.73;5.00;;;;;;;;;;5040355;28;20423;-81
2022/01/25 12:35:00;;;;;;;103.83;5.17;;;;;;;;;;5038329;28;20458;-80
2022/01/25 12:37:45;;;;;;;78.47;4.20;;;;;;;;;;5041609;28;21644;-80
2022/01/25 12:40:28;;;;;;;86.10;4.60;;;;;;;;;;5045717;28;20431;-80
2022/01/25 12:43:00;;;;;;;57.77;4.50;;;;;;;;;;5051788;28;20415;-80
2022/01/25 12:45:28;;;;;;;125.57;5.40;;;14.30;22.30;;;;;;5043818;28;20448;-79
2022/01/25 12:47:55;;;;;;;49.23;3.77;;;14.40;21.50;;;;;;5042671;28;20497;-79
2022/01/25 12:50:21;;;;;;;93.83;5.27;;;14.40;21.50;;;;;;5039162;28;20437;-79
2022/01/25 12:52:47;;;;;;;67.53;4.53;;;;;;;;;;5042392;28;20448;-79
2022/01/25 12:55:14;;;;;;;67.70;3.90;;;;;;;;;;5042130;28;20786;-79
2022/01/25 12:57:47;;;;;;;99.67;6.20;;;14.50;20.60;;;;;;5038084;28;20434;-79
2022/01/25 13:00:14;;;;;;;64.00;4.60;;;;;;;;;;5040044;28;20430;-79
2022/01/25 13:02:40;;;;;;;49.47;3.43;;;;;;;;;;5040229;28;20448;-79
2022/01/25 13:05:16;;;;;;;28.43;3.30;;;;;;;;;;5040322;28;20443;-79
2022/01/25 13:07:43;;;;;;;102.50;5.07;;;;;;;;;;5035736;28;20458;-77
2022/01/25 13:10:12;;;;;;;62.87;4.37;;;13.90;21.10;;;;;;5053611;28;20931;-77
2022/01/25 13:12:54;;;;;;;74.10;4.10;;;;;;;;;;5052862;28;20437;-77
2022/01/25 13:15:56;;;;;;;64.20;4.33;;;12.90;22.40;;;;;;5047561;28;20459;-79
2022/01/25 13:53:05;;;;;;;73.17;5.80;;;16.00;19.00;;;;;;5088740;28;20313;-78
2022/01/25 13:55:31;;;;;;;88.17;5.40;;;;;;;;;;5071810;28;20445;-80
2022/01/25 13:57:57;;;;;;;78.40;5.40;;;;;;;;;;5070504;28;20441;-78
2022/01/25 14:00:24;;;;;;;141.93;6.20;;;;;;;;;;5067219;28;20415;-78
2022/01/25 14:02:52;;;;;;;108.77;6.17;;;;;;;;;;5067850;28;20425;-78
2022/01/25 14:05:19;;;;;;;128.27;5.90;;;20.10;15.20;;;;;;5067961;28;20462;-78
2022/01/25 14:07:52;;;;;;;118.30;6.27;;;;;;;;;;5066278;28;20512;-78
2022/01/25 14:10:23;;;;;;;78.33;5.80;;;;;;;;;;5069690;28;20460;-80
2022/01/25 14:23:52;;;;;;;77.03;6.13;;;;;;;;;;5089776;28;20472;-78
2022/01/25 14:26:19;;;;;;;82.83;5.80;;;;;;;;;;5090000;28;20451;-80
2022/01/25 14:28:53;;;;;;;79.93;6.33;;;;;;;;;;5087302;28;20802;-80
2022/01/25 14:31:22;;;;;;;78.63;5.93;;;20.50;14.70;;;;;;5071623;28;20429;-80
2022/01/25 14:33:50;;;;;;;61.63;5.10;;;;;;;;;;5074418;28;20445;-80
2022/01/25 14:36:17;;;;;;;86.57;6.30;;;;;;;;;;5073041;28;20445;-80
2022/01/25 14:38:45;;;;;;;68.60;5.53;;;19.50;15.00;;;;;;5072806;28;20727;-80
2022/01/25 14:41:11;;;;;;;99.70;6.70;;;;;;;;;;5072349;28;20563;-81
2022/01/25 14:43:52;;;;;;;69.20;6.30;;;17.30;16.80;;;;;;5072183;28;20448;-81
2022/01/25 14:46:25;;;;;;;91.30;6.23;;;;;;;;;;5072935;28;20457;-80
2022/01/25 14:49:13;;;;;;;65.53;5.30;;;;;;;;;;5071205;28;20798;-80
2022/01/25 14:51:44;;;;;;;77.17;6.07;;;;;;;;;;5061849;28;20486;-79
2022/01/25 14:54:12;;;;;;;62.57;5.30;;;;;;;;;;5070400;28;20453;-79
2022/01/25 14:56:39;;;;;;;88.57;4.90;;;;;;;;;;5069110;28;20417;-79
2022/01/25 14:59:28;;;;;;;104.70;5.83;;;;;;;;;;5069504;28;20423;-79
2022/01/25 15:02:11;;;;;;;59.93;5.30;;;12.90;22.60;;;;;;5068768;28;20453;-79
2022/01/25 15:04:40;;;;;;;58.83;3.80;;;12.80;22.40;;;;;;5055350;28;20540;-77
2022/01/25 15:07:17;;;;;;;86.03;4.47;;;12.10;23.60;;;;;;5050210;28;20493;-80
2022/01/25 15:09:53;;;;;;;105.90;5.87;;;;;;;;;;5056061;28;20501;-77
2022/01/25 15:12:43;;;;;;;60.57;4.10;;;;;;;;;;5056359;28;20418;-80
2022/01/25 15:15:14;;;;;;;79.53;3.93;;;11.30;25.00;;;;;;5057921;28;20852;-81
2022/01/25 15:17:40;;;;;;;118.43;5.00;;;;;;;;;;5057728;28;20423;-82
2022/01/25 15:20:08;;;;;;;57.95;3.47;;;;;;;;;;5055778;28;20430;-82
2022/01/25 15:22:34;;;;;;;74.17;3.70;;;;;;;;;;5056062;28;20389;-81
2022/01/25 15:25:00;;;;;;;96.22;4.95;;;;;;;;;;5057999;28;20433;-82
2022/01/25 15:27:31;;;;;;;63.92;3.75;;;;;;;;;;5058159;28;20258;-83
2022/01/25 15:29:59;;;;;;;88.53;4.47;;;10.50;26.20;;;;;;5057401;28;20167;-80
2022/01/25 15:32:25;;;;;;;55.65;3.25;;;;;;;;;;5057191;28;20569;-83
2022/01/25 15:34:51;;;;;;;54.38;4.03;;;;;;;;;;5057282;28;20332;-80
2022/01/25 15:37:17;;;;;;;87.97;4.30;;;;;;;;;;5058450;28;20549;-79
2022/01/25 15:39:43;;;;;;;83.25;4.45;;;;;;;;;;5058316;28;20275;-79
2022/01/25 15:42:11;;;;;;;100.38;4.13;;;10.30;26.80;;;;;;5054106;28;20202;-80
2022/01/25 15:44:42;;;;;;;101.88;6.35;;;10.30;26.70;;;;;;5058383;28;20219;-80
2022/01/25 15:47:09;;;;;;;109.05;5.00;;;;;;;;;;5054615;28;20171;-79
2022/01/25 15:49:35;;;;;;;60.53;4.22;;;;;;;;;;5058616;28;20176;-80
2022/01/25 15:52:01;;;;;;;57.65;6.80;;;10.00;27.10;;;;;;5057926;28;20571;-80
2022/01/25 15:54:28;;;;;;;88.68;6.75;;;;;;;;;;5057577;28;20623;-79
2022/01/25 15:56:54;;;;;;;62.22;5.78;;;;;;;;;;5055057;28;20619;-79
2022/01/25 15:59:21;;;;;;;55.83;3.65;;;9.90;28.40;;;;;;5058883;28;20189;-79
2022/01/25 16:01:52;;;;;;;52.63;5.03;;;9.90;28.20;;;;;;5056341;28;20221;-79
2022/01/25 16:04:19;;;;;;;60.40;5.35;;;;;;;;;;5054102;28;20223;-79
2022/01/25 16:06:46;;;;;;;55.35;3.95;;;;;;;;;;5058063;28;20913;-79
2022/01/25 16:09:12;;;;;;;43.03;2.88;;;;;;;;;;5059515;28;20259;-81
2022/01/25 16:11:38;;;;;;;85.35;3.65;;;;;;;;;;5058839;28;20197;-81
2022/01/25 16:14:04;;;;;;;86.05;4.25;;;;;;;;;;5053726;28;20706;-79
2022/01/25 16:16:30;;;;;;;72.28;3.67;;;;;;;;;;5054374;28;20230;-80
2022/01/25 16:18:56;;;;;;;56.78;3.97;;;;;;;;;;5055130;28;20225;-80
2022/01/25 16:21:22;;;;;;;69.57;3.95;;;;;;;;;;5061089;28;20192;-80
2022/01/25 16:23:48;;;;;;;71.97;3.55;;;;;;;;;;5060233;28;20299;-80
2022/01/25 16:26:14;;;;;;;189.35;6.10;;;;;;;;;;5057098;28;20179;-81
2022/01/25 16:28:41;;;;;;;38.17;2.83;;;;;;;;;;5054213;28;20180;-81
2022/01/25 16:31:17;;;;;;;77.20;4.32;;;8.90;30.20;;;;;;5054024;28;20421;-81